createdAt,value
2022-08-17T00:00:49.655Z,99600.55
2022-08-17T00:03:25.890Z,99596.33
2022-08-17T00:06:00.792Z,99598.73
2022-08-17T00:08:33.933Z,99595.46
2022-08-17T00:11:09.543Z,99595.02
2022-08-17T00:13:45.603Z,99595.30
2022-08-17T00:16:50.993Z,99596.03
2022-08-17T00:19:22.061Z,99592.36
2022-08-17T00:22:31.047Z,99592.16
2022-08-17T00:24:49.081Z,99594.47
2022-08-17T00:27:20.719Z,99595.80
2022-08-17T00:29:52.289Z,99599.20
2022-08-17T00:33:13.673Z,99603.61
2022-08-17T00:35:17.806Z,99603.69
2022-08-17T00:37:49.256Z,99607.14
2022-08-17T00:40:21.951Z,99613.57
2022-08-17T00:42:56.813Z,99613.66
2022-08-17T00:45:28.482Z,99625.66
2022-08-17T00:47:59.738Z,99627.92
2022-08-17T00:50:31.007Z,99629.75
2022-08-17T00:53:05.489Z,99627.20
2022-08-17T00:55:37.014Z,99622.58
2022-08-17T00:58:09.248Z,99617.45
2022-08-17T01:00:44.303Z,99612.53
2022-08-17T01:03:20.383Z,99607.73
2022-08-17T01:05:55.138Z,99605.30
2022-08-17T01:08:29.746Z,99603.80
2022-08-17T01:11:02.537Z,99609.89
2022-08-17T01:13:40.755Z,99606.17
2022-08-17T01:16:18.508Z,99611.10
2022-08-17T01:18:53.871Z,99608.81
2022-08-17T01:21:32.957Z,99610.63
2022-08-17T01:24:04.978Z,99615.09
2022-08-17T01:26:37.260Z,99616.02
2022-08-17T01:29:09.530Z,99620.34
2022-08-17T01:31:45.392Z,99623.96
2022-08-17T01:34:18.756Z,99629.80
2022-08-17T01:36:51.668Z,99626.21
2022-08-17T01:39:27.905Z,99630.84
2022-08-17T01:42:07.043Z,99634.63
2022-08-17T01:44:38.552Z,99632.27
2022-08-17T01:47:09.799Z,99636.73
2022-08-17T01:49:41.301Z,99635.52
2022-08-17T01:52:14.293Z,99633.21
2022-08-17T01:54:48.597Z,99633.27
2022-08-17T01:57:18.284Z,99638.88
2022-08-17T01:59:49.429Z,99635.56
2022-08-17T02:02:30.839Z,99634.36
2022-08-17T02:05:02.885Z,99629.36
2022-08-17T02:07:59.688Z,99629.02
2022-08-17T02:10:34.109Z,99633.75
2022-08-17T02:13:07.649Z,99634.55
2022-08-17T02:15:39.125Z,99630.93
2022-08-17T02:18:11.871Z,99632.25
2022-08-17T02:20:44.210Z,99630.29
2022-08-17T02:23:16.606Z,99628.52
2022-08-17T02:25:49.997Z,99623.68
2022-08-17T02:28:21.699Z,99622.69
2022-08-17T02:31:01.615Z,99621.48
2022-08-17T02:33:43.053Z,99624.12
2022-08-17T02:36:16.180Z,99620.63
2022-08-17T02:38:48.008Z,99619.60
2022-08-17T02:41:19.536Z,99620.30
2022-08-17T02:43:51.374Z,99615.23
2022-08-17T02:46:22.865Z,99617.02
2022-08-17T02:48:54.389Z,99616.88
2022-08-17T02:51:26.023Z,99613.58
2022-08-17T02:54:35.787Z,99617.16
2022-08-17T02:56:48.709Z,99616.03
2022-08-17T02:59:20.086Z,99614.52
2022-08-17T03:01:51.511Z,99616.03
2022-08-17T03:04:22.886Z,99613.27
2022-08-17T03:06:54.157Z,99619.17
2022-08-17T03:09:25.487Z,99617.39
2022-08-17T03:11:57.461Z,99623.61
2022-08-17T03:14:28.831Z,99622.23
2022-08-17T03:17:00.305Z,99624.66
2022-08-17T03:19:31.547Z,99624.05
2022-08-17T03:22:35.930Z,99625.85
2022-08-17T03:24:58.771Z,99626.77
2022-08-17T03:27:35.233Z,99625.44
2022-08-17T03:30:12.655Z,99627.23
2022-08-17T03:32:51.566Z,99626.76
2022-08-17T03:35:25.910Z,99629.76
2022-08-17T03:38:00.029Z,99631.78
2022-08-17T03:40:36.957Z,99636.52
2022-08-17T03:43:25.356Z,99639.41
2022-08-17T03:46:33.960Z,99645.02
2022-08-17T03:49:23.501Z,99642.14
2022-08-17T03:52:12.430Z,99642.14
2022-08-17T03:55:01.827Z,99639.90
2022-08-17T03:57:34.494Z,99636.47
2022-08-17T04:00:06.718Z,99638.77
2022-08-17T04:02:38.334Z,99642.56
2022-08-17T04:05:11.076Z,99642.69
2022-08-17T04:07:42.936Z,99645.34
2022-08-17T04:10:14.376Z,99647.67
2022-08-17T04:12:51.145Z,99648.95
2022-08-17T04:15:22.959Z,99658.47
2022-08-17T04:17:54.858Z,99658.89
2022-08-17T04:20:27.802Z,99665.64
2022-08-17T04:23:05.678Z,99672.11
2022-08-17T04:25:39.315Z,99668.23
2022-08-17T04:28:15.789Z,99666.11
2022-08-17T04:30:49.043Z,99663.11
2022-08-17T04:33:24.285Z,99666.55
2022-08-17T04:35:59.521Z,99664.70
2022-08-17T04:38:32.441Z,99665.24
2022-08-17T04:41:21.667Z,99664.71
2022-08-17T04:43:56.341Z,99675.66
2022-08-17T04:46:30.068Z,99681.13
2022-08-17T04:49:02.642Z,99677.79
2022-08-17T04:51:36.094Z,99681.95
2022-08-17T04:54:09.306Z,99679.40
2022-08-17T04:56:41.599Z,99676.02
2022-08-17T04:59:15.647Z,99674.94
2022-08-17T05:01:47.138Z,99676.86
2022-08-17T05:04:34.089Z,99675.58
2022-08-17T05:07:07.022Z,99678.81
2022-08-17T05:09:38.339Z,99682.27
2022-08-17T05:12:10.354Z,99690.16
2022-08-17T05:14:43.184Z,99692.69
2022-08-17T05:17:14.585Z,99691.15
2022-08-17T05:19:51.783Z,99692.95
2022-08-17T05:22:23.413Z,99693.84
2022-08-17T05:24:56.713Z,99695.77
2022-08-17T05:27:30.833Z,99699.98
2022-08-17T05:30:07.974Z,99700.42
2022-08-17T05:32:40.438Z,99701.41
2022-08-17T05:35:12.376Z,99702.46
2022-08-17T05:37:43.579Z,99698.48
2022-08-17T05:40:15.982Z,99694.17
2022-08-17T05:42:47.335Z,99689.61
2022-08-17T05:45:46.042Z,99686.17
2022-08-17T05:48:13.242Z,99685.84
2022-08-17T05:50:51.642Z,99686.73
2022-08-17T05:53:32.616Z,99687.45
2022-08-17T05:56:29.611Z,99688.84
2022-08-17T05:59:09.493Z,99689.27
2022-08-17T06:01:50.087Z,99682.85
2022-08-17T06:04:31.742Z,99684.46
2022-08-17T06:07:13.634Z,99693.09
2022-08-17T06:09:53.776Z,99691.72
2022-08-17T06:12:41.483Z,99689.18
2022-08-17T06:15:25.275Z,99691.47
2022-08-17T06:18:00.656Z,99692.16
2022-08-17T06:20:37.188Z,99694.52
2022-08-17T06:23:14.595Z,99695.73
2022-08-17T06:25:51.149Z,99695.69
2022-08-17T06:28:29.873Z,99692.80
2022-08-17T06:31:07.779Z,99693.05
2022-08-17T06:33:41.869Z,99694.33
2022-08-17T06:36:28.968Z,99687.84
2022-08-17T06:39:11.718Z,99689.85
2022-08-17T06:41:52.501Z,99694.69
2022-08-17T06:44:43.525Z,99693.20
2022-08-17T06:47:28.093Z,99698.14
2022-08-17T06:50:12.025Z,99693.38
2022-08-17T06:52:52.073Z,99697.43
2022-08-17T06:55:27.867Z,99693.90
2022-08-17T06:58:15.802Z,99694.89
2022-08-17T07:00:54.229Z,99692.16
2022-08-17T07:03:38.226Z,99694.93
2022-08-17T07:06:16.572Z,99695.92
2022-08-17T07:08:55.492Z,99699.73
2022-08-17T07:11:33.208Z,99698.89
2022-08-17T07:14:20.546Z,99697.34
2022-08-17T07:16:55.147Z,99695.65
2022-08-17T07:19:32.654Z,99697.82
2022-08-17T07:22:15.011Z,99699.73
2022-08-17T07:24:51.867Z,99699.50
2022-08-17T07:27:27.517Z,99699.95
2022-08-17T07:30:08.027Z,99701.19
2022-08-17T07:32:45.666Z,99699.46
2022-08-17T07:35:22.493Z,99694.02
2022-08-17T07:38:25.416Z,99692.38
2022-08-17T07:41:06.512Z,99693.59
2022-08-17T07:43:46.516Z,99689.56
2022-08-17T07:46:38.172Z,99689.69
2022-08-17T07:49:39.485Z,99688.83
2022-08-17T07:52:50.770Z,99688.97
2022-08-17T07:55:30.978Z,99692.56
2022-08-17T07:58:03.854Z,99692.44
2022-08-17T08:00:37.469Z,99692.41
2022-08-17T08:03:22.127Z,99698.26
2022-08-17T08:06:02.477Z,99701.53
2022-08-17T08:08:39.138Z,99701.90
2022-08-17T08:11:16.963Z,99700.27
2022-08-17T08:13:50.156Z,99698.41
2022-08-17T08:16:30.796Z,99705.88
2022-08-17T08:19:04.309Z,99710.23
2022-08-17T08:21:42.061Z,99707.20
2022-08-17T08:24:33.074Z,99710.05
2022-08-17T08:27:16.275Z,99709.11
2022-08-17T08:29:55.451Z,99705.80
2022-08-17T08:32:43.258Z,99704.64
2022-08-17T08:35:26.919Z,99709.01
2022-08-17T08:38:09.027Z,99701.92
2022-08-17T08:40:52.890Z,99708.70
2022-08-17T08:43:33.149Z,99710.64
2022-08-17T08:46:24.445Z,99705.31
2022-08-17T08:49:12.645Z,99704.75
2022-08-17T08:51:53.790Z,99705.56
2022-08-17T08:54:40.166Z,99712.13
2022-08-17T08:57:25.707Z,99713.69
2022-08-17T09:00:15.093Z,99713.96
2022-08-17T09:03:42.569Z,99710.05
2022-08-17T09:06:39.194Z,99710.73
2022-08-17T09:09:24.612Z,99714.60
2022-08-17T09:12:04.239Z,99717.44
2022-08-17T09:14:47.323Z,99721.02
2022-08-17T09:17:22.817Z,99713.48
2022-08-17T09:20:01.523Z,99715.11
2022-08-17T09:22:37.795Z,99716.89
2022-08-17T09:25:15.250Z,99720.95
2022-08-17T09:27:56.937Z,99720.88
2022-08-17T09:30:41.060Z,99716.98
2022-08-17T09:33:15.623Z,99717.95
2022-08-17T09:35:52.625Z,99717.77
2022-08-17T09:38:32.717Z,99716.83
2022-08-17T09:41:14.130Z,99714.70
2022-08-17T09:43:52.229Z,99713.46
2022-08-17T09:46:26.854Z,99711.91
2022-08-17T09:49:04.681Z,99712.83
2022-08-17T09:51:42.988Z,99715.92
2022-08-17T09:54:38.655Z,99713.09
2022-08-17T09:57:31.821Z,99712.83
2022-08-17T10:00:24.104Z,99712.95
2022-08-17T10:03:20.229Z,99710.52
2022-08-17T10:05:59.804Z,99709.16
2022-08-17T10:08:43.897Z,99704.83
2022-08-17T10:11:48.396Z,99703.27
2022-08-17T10:14:37.979Z,99702.30
2022-08-17T10:17:23.038Z,99702.21
2022-08-17T10:20:01.361Z,99707.98
2022-08-17T10:23:00.062Z,99709.08
2022-08-17T10:25:58.473Z,99711.41
2022-08-17T10:28:40.483Z,99704.14
2022-08-17T10:31:39.730Z,99707.79
2022-08-17T10:34:41.587Z,99708.42
2022-08-17T10:37:44.042Z,99710.83
2022-08-17T10:40:32.792Z,99711.09
2022-08-17T10:43:17.658Z,99711.06
2022-08-17T10:46:30.198Z,99711.30
2022-08-17T10:49:08.888Z,99713.05
2022-08-17T10:51:42.286Z,99711.69
2022-08-17T10:54:41.273Z,99710.10
2022-08-17T10:57:39.429Z,99709.73
2022-08-17T11:00:16.603Z,99711.69
2022-08-17T11:02:53.517Z,99712.69
2022-08-17T11:05:47.746Z,99711.69
2022-08-17T11:08:50.742Z,99715.23
2022-08-17T11:11:52.918Z,99719.55
2022-08-17T11:14:50.802Z,99719.73
2022-08-17T11:17:42.894Z,99713.95
2022-08-17T11:20:58.758Z,99717.37
2022-08-17T11:23:57.635Z,99724.87
2022-08-17T11:26:32.354Z,99728.67
2022-08-17T11:29:09.845Z,99735.73
2022-08-17T11:31:43.942Z,99730.39
2022-08-17T11:34:26.815Z,99733.36
2022-08-17T11:37:17.097Z,99727.70
2022-08-17T11:40:19.631Z,99727.23
2022-08-17T11:43:08.220Z,99727.77
2022-08-17T11:46:03.751Z,99729.29
2022-08-17T11:49:00.472Z,99737.35
2022-08-17T11:52:01.634Z,99728.71
2022-08-17T11:54:51.182Z,99730.25
2022-08-17T11:58:02.041Z,99731.41
2022-08-17T12:00:58.122Z,99733.70
2022-08-17T12:03:57.475Z,99733.04
2022-08-17T12:06:42.854Z,99730.69
2022-08-17T12:09:18.718Z,99731.34
2022-08-17T12:12:12.117Z,99728.88
2022-08-17T12:15:10.529Z,99727.08
2022-08-17T12:17:43.974Z,99725.98
2022-08-17T12:20:24.411Z,99729.30
2022-08-17T12:23:05.821Z,99737.66
2022-08-17T12:25:40.576Z,99738.09
2022-08-17T12:28:26.545Z,99733.86
2022-08-17T12:31:01.345Z,99737.39
2022-08-17T12:33:33.351Z,99738.10
2022-08-17T12:36:07.703Z,99741.08
2022-08-17T12:38:40.280Z,99743.58
2022-08-17T12:41:30.271Z,99740.90
2022-08-17T12:44:05.513Z,99735.48
2022-08-17T12:46:49.323Z,99729.35
2022-08-17T12:49:29.309Z,99730.71
2022-08-17T12:52:09.377Z,99730.49
2022-08-17T12:54:56.714Z,99730.16
2022-08-17T12:57:33.470Z,99729.84
2022-08-17T13:00:11.803Z,99725.61
2022-08-17T13:02:48.033Z,99727.14
2022-08-17T13:05:25.706Z,99723.88
2022-08-17T13:07:58.619Z,99713.73
2022-08-17T13:10:34.024Z,99713.95
2022-08-17T13:13:18.598Z,99712.04
2022-08-17T13:15:58.222Z,99707.84
2022-08-17T13:18:44.435Z,99707.54
2022-08-17T13:21:28.979Z,99708.29
2022-08-17T13:24:02.819Z,99709.84
2022-08-17T13:26:38.037Z,99706.21
2022-08-17T13:29:23.589Z,99709.27
2022-08-17T13:32:04.811Z,99715.14
2022-08-17T13:35:05.262Z,99713.09
2022-08-17T13:37:35.434Z,99711.50
2022-08-17T13:40:29.670Z,99713.70
2022-08-17T13:43:03.594Z,99714.73
2022-08-17T13:45:38.851Z,99718.82
2022-08-17T13:48:17.948Z,99728.79
2022-08-17T13:51:04.364Z,99724.16
2022-08-17T13:53:53.550Z,99727.95
2022-08-17T13:56:54.895Z,99726.83
2022-08-17T13:59:55.214Z,99727.20
2022-08-17T14:02:28.675Z,99720.56
2022-08-17T14:05:06.075Z,99721.73
2022-08-17T14:07:40.471Z,99724.91
2022-08-17T14:10:17.644Z,99722.16
2022-08-17T14:12:51.238Z,99717.91
2022-08-17T14:15:54.868Z,99716.56
2022-08-17T14:18:41.978Z,99720.84
2022-08-17T14:21:12.175Z,99720.89
2022-08-17T14:23:54.445Z,99724.79
2022-08-17T14:26:26.012Z,99728.83
2022-08-17T14:28:58.044Z,99730.87
2022-08-17T14:31:34.065Z,99727.83
2022-08-17T14:34:10.866Z,99726.02
2022-08-17T14:36:45.426Z,99717.27
2022-08-17T14:39:20.813Z,99719.96
2022-08-17T14:41:53.483Z,99718.63
2022-08-17T14:44:24.916Z,99721.59
2022-08-17T14:46:57.783Z,99717.78
2022-08-17T14:49:31.826Z,99719.78
2022-08-17T14:52:04.268Z,99721.36
2022-08-17T14:54:35.729Z,99717.67
2022-08-17T14:57:15.585Z,99723.38
2022-08-17T14:59:59.501Z,99721.72
2022-08-17T15:02:31.338Z,99723.83
2022-08-17T15:05:05.151Z,99725.95
2022-08-17T15:07:36.616Z,99719.77
2022-08-17T15:10:09.363Z,99712.02
2022-08-17T15:12:41.573Z,99711.63
2022-08-17T15:15:15.731Z,99715.73
2022-08-17T15:17:47.398Z,99719.77
2022-08-17T15:20:22.215Z,99723.98
2022-08-17T15:22:55.891Z,99723.78
2022-08-17T15:25:29.890Z,99720.35
2022-08-17T15:28:01.950Z,99724.27
2022-08-17T15:30:34.889Z,99727.73
2022-08-17T15:33:08.201Z,99730.83
2022-08-17T15:35:39.780Z,99732.02
2022-08-17T15:38:12.487Z,99730.88
2022-08-17T15:40:46.478Z,99733.80
2022-08-17T15:43:17.517Z,99727.41
2022-08-17T15:45:52.538Z,99726.64
2022-08-17T15:48:42.594Z,99731.36
2022-08-17T15:51:16.807Z,99725.73
2022-08-17T15:53:52.206Z,99720.83
2022-08-17T15:56:24.037Z,99718.50
2022-08-17T15:58:56.151Z,99718.71
2022-08-17T16:02:15.377Z,99718.27
2022-08-17T16:04:29.711Z,99718.55
2022-08-17T16:07:03.150Z,99715.55
2022-08-17T16:09:34.833Z,99711.48
2022-08-17T16:12:14.745Z,99709.15
2022-08-17T16:14:46.508Z,99711.69
2022-08-17T16:17:39.027Z,99707.33
2022-08-17T16:20:20.011Z,99713.58
2022-08-17T16:22:54.173Z,99713.74
2022-08-17T16:25:38.807Z,99716.69
2022-08-17T16:28:35.804Z,99713.63
2022-08-17T16:31:08.880Z,99717.23
2022-08-17T16:33:41.417Z,99719.86
2022-08-17T16:36:13.608Z,99722.55
2022-08-17T16:38:44.880Z,99722.33
2022-08-17T16:41:37.203Z,99722.81
2022-08-17T16:44:10.799Z,99726.91
2022-08-17T16:46:48.739Z,99725.13
2022-08-17T16:49:36.119Z,99722.32
2022-08-17T16:55:08.704Z,99719.30
2022-08-17T16:57:47.193Z,99721.69
2022-08-17T17:00:22.040Z,99717.66
2022-08-17T17:02:54.941Z,99717.48
2022-08-17T17:05:39.236Z,99722.88
2022-08-17T17:08:12.883Z,99726.14
2022-08-17T17:10:48.152Z,99726.44
2022-08-17T17:13:26.936Z,99728.41
2022-08-17T17:16:19.397Z,99728.27
2022-08-17T17:19:09.619Z,99728.75
2022-08-17T17:21:46.711Z,99734.48
2022-08-17T17:24:28.886Z,99737.50
2022-08-17T17:27:17.994Z,99735.23
2022-08-17T17:30:03.947Z,99730.86
2022-08-17T17:32:40.808Z,99729.48
2022-08-17T17:35:18.158Z,99731.65
2022-08-17T17:37:51.749Z,99738.59
2022-08-17T17:40:26.970Z,99743.36
2022-08-17T17:43:20.442Z,99744.66
2022-08-17T17:45:58.845Z,99747.84
2022-08-17T17:48:50.801Z,99747.65
2022-08-17T17:51:58.146Z,99755.77
2022-08-17T17:54:33.992Z,99755.73
2022-08-17T17:57:16.240Z,99757.03
2022-08-17T17:59:59.024Z,99759.44
2022-08-17T18:02:51.986Z,99759.13
2022-08-17T18:05:44.615Z,99753.94
2022-08-17T18:08:32.369Z,99757.10
2022-08-17T18:11:15.126Z,99758.72
2022-08-17T18:14:07.010Z,99762.27
2022-08-17T18:16:42.993Z,99763.31
2022-08-17T18:19:20.157Z,99767.12
2022-08-17T18:21:54.811Z,99769.60
2022-08-17T18:24:35.777Z,99773.55
2022-08-17T18:27:23.593Z,99780.23
2022-08-17T18:29:56.594Z,99781.42
2022-08-17T18:32:34.674Z,99785.98
2022-08-17T18:35:28.666Z,99790.27
2022-08-17T18:38:20.596Z,99789.23
2022-08-17T18:41:01.856Z,99785.00
2022-08-17T18:43:44.251Z,99793.15
2022-08-17T18:46:33.376Z,99801.77
2022-08-17T18:49:07.822Z,99804.94
2022-08-17T18:51:43.307Z,99802.03
2022-08-17T18:54:24.238Z,99800.73
2022-08-17T18:57:00.492Z,99800.06
2022-08-17T18:59:35.961Z,99802.16
2022-08-17T19:02:39.137Z,99806.98
2022-08-17T19:05:27.821Z,99807.35
2022-08-17T19:08:19.900Z,99802.04
2022-08-17T19:10:55.298Z,99799.61
2022-08-17T19:13:35.731Z,99800.48
2022-08-17T19:16:15.726Z,99803.30
2022-08-17T19:18:52.342Z,99800.73
2022-08-17T19:21:28.660Z,99805.74
2022-08-17T19:24:06.682Z,99808.27
2022-08-17T19:26:50.914Z,99807.60
2022-08-17T19:29:34.374Z,99815.20
2022-08-17T19:32:08.150Z,99822.08
2022-08-17T19:34:44.967Z,99821.70
2022-08-17T19:37:30.996Z,99827.10
2022-08-17T19:40:24.484Z,99828.83
2022-08-17T19:43:16.192Z,99827.82
2022-08-17T19:45:59.653Z,99827.39
2022-08-17T19:48:45.831Z,99829.41
2022-08-17T19:51:23.171Z,99825.64
2022-08-17T19:54:07.379Z,99828.55
2022-08-17T19:56:49.306Z,99826.97
2022-08-17T19:59:36.144Z,99833.95
2022-08-17T20:05:19.003Z,99851.67
2022-08-17T20:07:56.511Z,99859.39
2022-08-17T20:10:37.149Z,99864.69
2022-08-17T20:13:15.635Z,99868.87
2022-08-17T20:15:49.345Z,99871.28
2022-08-17T20:18:25.908Z,99876.54
2022-08-17T20:21:22.538Z,99877.52
2022-08-17T20:24:15.695Z,99872.70
2022-08-17T20:26:58.956Z,99878.39
2022-08-17T20:30:22.566Z,99873.03
2022-08-17T20:33:32.125Z,99870.10
2022-08-17T20:36:35.641Z,99864.38
2022-08-17T20:39:07.442Z,99866.23
2022-08-17T20:42:07.473Z,99867.14
2022-08-17T20:44:40.046Z,99872.29
2022-08-17T20:47:29.625Z,99869.41
2022-08-17T20:50:07.155Z,99872.99
2022-08-17T20:52:57.065Z,99869.05
2022-08-17T20:55:56.417Z,99867.19
2022-08-17T20:58:50.443Z,99863.58
2022-08-17T21:01:40.599Z,99857.98
2022-08-17T21:04:47.737Z,99861.05
2022-08-17T21:07:51.659Z,99862.20
2022-08-17T21:10:44.358Z,99862.90
2022-08-17T21:13:40.878Z,99869.09
2022-08-17T21:16:29.839Z,99868.64
2022-08-17T21:19:17.148Z,99868.52
2022-08-17T21:22:03.466Z,99871.89
2022-08-17T21:24:52.750Z,99869.23
2022-08-17T21:27:37.016Z,99867.93
2022-08-17T21:30:25.600Z,99871.37
2022-08-17T21:33:25.380Z,99866.05
2022-08-17T21:36:27.382Z,99869.54
2022-08-17T21:39:09.113Z,99875.01
2022-08-17T21:41:53.124Z,99871.42
2022-08-17T21:44:32.992Z,99870.88
2022-08-17T21:47:20.635Z,99871.47
2022-08-17T21:49:52.177Z,99875.89
2022-08-17T21:52:28.202Z,99871.12
2022-08-17T21:55:02.571Z,99868.84
2022-08-17T21:57:35.956Z,99866.52
2022-08-17T22:00:16.148Z,99868.00
2022-08-17T22:02:57.385Z,99876.23
2022-08-17T22:05:37.427Z,99880.34
2022-08-17T22:08:19.729Z,99884.13
2022-08-17T22:10:52.371Z,99880.86
2022-08-17T22:13:29.683Z,99875.37
2022-08-17T22:16:29.287Z,99869.95
2022-08-17T22:19:02.363Z,99872.71
2022-08-17T22:21:33.787Z,99872.84
2022-08-17T22:24:15.583Z,99864.48
2022-08-17T22:27:02.729Z,99862.65
2022-08-17T22:30:02.377Z,99857.70
2022-08-17T22:32:46.695Z,99855.80
2022-08-17T22:35:37.532Z,99856.84
2022-08-17T22:38:29.730Z,99855.42
2022-08-17T22:41:32.217Z,99859.27
2022-08-17T22:44:18.046Z,99858.64
2022-08-17T22:47:11.238Z,99853.48
2022-08-17T22:49:53.153Z,99846.43
2022-08-17T22:52:34.837Z,99844.66
2022-08-17T22:55:32.702Z,99846.58
2022-08-17T22:58:28.009Z,99843.72
2022-08-17T23:01:19.641Z,99838.30
2022-08-17T23:03:58.558Z,99834.13
2022-08-17T23:06:30.837Z,99832.66
2022-08-17T23:09:04.165Z,99831.88
2022-08-17T23:11:49.414Z,99829.67
2022-08-17T23:14:23.463Z,99825.27
2022-08-17T23:16:54.897Z,99822.22
2022-08-17T23:19:27.551Z,99817.48
2022-08-17T23:22:00.037Z,99816.17
2022-08-17T23:24:36.056Z,99810.84
2022-08-17T23:27:07.810Z,99812.13
2022-08-17T23:29:42.323Z,99818.34
2022-08-17T23:32:16.006Z,99821.23
2022-08-17T23:34:51.229Z,99820.00
2022-08-17T23:37:23.307Z,99819.86
2022-08-17T23:39:54.839Z,99816.86
2022-08-17T23:42:26.320Z,99815.09
2022-08-17T23:44:57.833Z,99813.59
2022-08-17T23:47:29.437Z,99820.06
2022-08-17T23:50:02.855Z,99820.29
2022-08-17T23:52:37.153Z,99822.39
2022-08-17T23:55:10.303Z,99825.63
2022-08-17T23:57:42.299Z,99830.46
